Time;durP1;ratioP1;P1;durP2;ratioP2;P2;SDS_P1;SDS_P2;PMS_P1;PMS_P2;Temp;Humidity;BMP_temperature;BMP_pressure;BME280_temperature;BME280_humidity;BME280_pressure;Samples;Min_cycle;Max_cycle;Signal;HPM_P1;HPM_P2
2021/01/08 00:01:01;;;;;;;1.50;1.20;;;;;;;0.90;100.00;98672.22;3854381;75;390104;-78
2021/01/08 00:06:22;;;;;;;0.97;0.60;;;;;;;0.89;100.00;98663.09;3854576;76;383567;-78
2021/01/08 00:11:43;;;;;;;0.93;0.87;;;;;;;0.89;100.00;98667.16;3854436;76;392131;-78
2021/01/08 00:17:05;;;;;;;2.90;1.80;;;;;;;0.87;100.00;98666.16;3853245;75;396374;-78
2021/01/08 00:22:27;;;;;;;2.33;2.13;;;;;;;0.89;100.00;98662.52;3853129;76;383563;-78
2021/01/08 00:27:49;;;;;;;1.83;1.73;;;;;;;0.88;100.00;98656.91;3853331;76;396338;-79
2021/01/08 00:33:10;;;;;;;1.70;1.60;;;;;;;0.88;100.00;98660.17;3853349;76;396146;-78
2021/01/08 00:38:31;;;;;;;1.30;0.97;;;;;;;0.83;100.00;98656.38;3853942;75;393979;-78
2021/01/08 00:43:52;;;;;;;0.80;0.50;;;;;;;0.86;100.00;98657.81;3854772;76;383564;-77
2021/01/08 00:49:14;;;;;;;5.00;3.23;;;;;;;0.86;100.00;98656.47;3853049;76;396390;-78
2021/01/08 00:54:36;;;;;;;1.97;1.83;;;;;;;0.87;100.00;98656.69;3853333;76;396114;-78
2021/01/08 00:59:58;;;;;;;1.77;0.90;;;;;;;0.85;100.00;98654.08;3853359;76;394038;-77
2021/01/08 01:05:19;;;;;;;1.07;0.97;;;;;;;0.76;100.00;98659.44;3853851;76;387688;-77
2021/01/08 01:10:41;;;;;;;1.47;1.37;;;;;;;0.72;100.00;98654.52;3853396;75;396039;-77
2021/01/08 01:16:02;;;;;;;0.90;0.80;;;;;;;0.68;100.00;98655.77;3854439;75;391854;-77
2021/01/08 01:21:24;;;;;;;0.80;0.60;;;;;;;0.66;100.00;98666.69;3854530;75;383547;-78
2021/01/08 01:26:45;;;;;;;1.27;1.07;;;;;;;0.67;100.00;98669.63;3858035;76;392122;-78
2021/01/08 01:32:06;;;;;;;0.80;0.40;;;;;;;0.66;100.00;98678.88;3854911;75;383871;-78
2021/01/08 01:37:28;;;;;;;1.10;0.63;;;;;;;0.64;100.00;98681.93;3854513;75;383826;-78
2021/01/08 01:42:49;;;;;;;1.03;0.93;;;;;;;0.67;100.00;98681.80;3854460;76;383536;-78
2021/01/08 01:48:11;;;;;;;2.17;1.07;;;;;;;0.71;100.00;98682.70;3854035;76;383536;-78
2021/01/08 01:53:33;;;;;;;0.93;0.73;;;;;;;0.75;100.00;98690.34;3854682;75;383576;-77
2021/01/08 01:58:54;;;;;;;0.90;0.80;;;;;;;0.73;100.00;98683.16;3854621;76;391894;-77
2021/01/08 02:04:19;;;;;;;1.17;1.07;;;;;;;0.72;100.00;98685.64;3853673;75;395093;-77
2021/01/08 02:09:41;;;;;;;0.80;0.70;;;;;;;0.77;100.00;98681.31;3854586;76;383575;-77
2021/01/08 02:15:05;;;;;;;1.77;0.80;;;;;;;0.68;100.00;98688.80;3853785;75;393991;-77
2021/01/08 02:20:26;;;;;;;0.77;0.57;;;;;;;0.70;100.00;98685.96;3855702;75;383627;-77
2021/01/08 02:25:48;;;;;;;2.20;1.47;;;;;;;0.67;100.00;98685.31;3853509;75;396113;-77
2021/01/08 02:31:09;;;;;;;3.33;1.27;;;;;;;0.62;100.00;98679.36;3853231;76;392176;-77
2021/01/08 02:36:33;;;;;;;1.63;0.83;;;;;;;0.61;100.00;98686.67;3853974;76;394285;-77
2021/01/08 02:41:56;;;;;;;1.30;1.07;;;;;;;0.62;100.00;98678.00;3853948;76;396369;-77
2021/01/08 02:47:20;;;;;;;5.77;1.63;;;;;;;0.59;100.00;98678.12;3853788;76;396085;-77
2021/01/08 02:52:45;;;;;;;2.03;1.00;;;;;;;0.68;100.00;98676.62;3853894;75;389829;-77
2021/01/08 02:58:06;;;;;;;0.80;0.40;;;;;;;0.62;100.00;98676.06;3836768;76;383567;-77
2021/01/08 03:03:28;;;;;;;1.10;1.00;;;;;;;0.60;100.00;98684.31;3854733;76;383810;-77
2021/01/08 03:08:50;;;;;;;0.80;0.40;;;;;;;0.64;100.00;98682.52;3854681;76;383575;-77
2021/01/08 03:14:11;;;;;;;0.93;0.73;;;;;;;0.58;100.00;98679.80;3854875;76;383760;-77
2021/01/08 03:19:34;;;;;;;1.17;1.07;;;;;;;0.57;100.00;98684.44;3853362;76;383562;-77
2021/01/08 03:24:55;;;;;;;1.30;0.93;;;;;;;0.56;100.00;98678.03;3854437;76;383571;-78
2021/01/08 03:30:17;;;;;;;1.20;1.07;;;;;;;0.61;100.00;98671.01;3853836;75;393929;-78
2021/01/08 03:35:38;;;;;;;1.37;0.77;;;;;;;0.59;100.00;98678.67;3854018;76;389805;-77
2021/01/08 03:41:01;;;;;;;6.53;3.37;;;;;;;0.58;100.00;98667.63;3854519;76;383567;-77
2021/01/08 03:46:24;;;;;;;0.93;0.70;;;;;;;0.59;100.00;98673.27;3854591;76;383571;-77
2021/01/08 03:51:45;;;;;;;1.30;0.93;;;;;;;0.62;100.00;98673.94;3853588;76;396035;-77
2021/01/08 03:57:07;;;;;;;1.00;0.90;;;;;;;0.68;100.00;98671.20;3854590;75;383815;-77
2021/01/08 04:02:29;;;;;;;1.43;1.33;;;;;;;0.72;100.00;98666.69;3853343;76;396173;-77
2021/01/08 04:07:51;;;;;;;1.20;1.10;;;;;;;0.69;100.00;98653.84;3854353;75;383532;-77
2021/01/08 04:13:12;;;;;;;0.80;0.60;;;;;;;0.71;100.00;98656.99;3854938;76;383570;-77
2021/01/08 04:18:34;;;;;;;1.77;1.67;;;;;;;0.70;100.00;98659.48;3853495;76;396162;-77
2021/01/08 04:23:55;;;;;;;4.10;2.00;;;;;;;0.72;100.00;98659.92;3853557;76;396031;-77
2021/01/08 04:29:17;;;;;;;0.80;0.43;;;;;;;0.78;100.00;98653.13;3831137;76;383559;-77
2021/01/08 04:34:39;;;;;;;1.53;1.43;;;;;;;0.71;100.00;98659.13;3853622;76;396094;-77
2021/01/08 04:40:00;;;;;;;0.80;0.50;;;;;;;0.76;100.00;98653.48;3854924;75;383838;-77
2021/01/08 04:45:21;;;;;;;1.40;1.30;;;;;;;0.79;100.00;98651.41;3854122;76;391915;-77
2021/01/08 04:50:43;;;;;;;0.97;0.70;;;;;;;0.81;100.00;98651.28;3854357;76;387812;-77
2021/01/08 04:56:07;;;;;;;2.63;1.20;;;;;;;0.78;100.00;98657.95;3854326;75;394057;-77
2021/01/08 05:01:29;;;;;;;5.47;1.10;;;;;;;0.78;100.00;98653.34;3853899;76;394027;-77
2021/01/08 05:06:51;;;;;;;1.20;0.90;;;;;;;0.84;100.00;98654.66;3854171;75;391897;-77
2021/01/08 05:12:12;;;;;;;1.30;1.20;;;;;;;0.82;100.00;98650.73;3853492;75;392888;-77
2021/01/08 05:17:34;;;;;;;0.80;0.50;;;;;;;0.85;100.00;98658.14;3836095;76;383787;-77
2021/01/08 05:22:57;;;;;;;1.30;1.20;;;;;;;0.85;100.00;98654.08;3854042;75;383559;-77
2021/01/08 05:28:21;;;;;;;1.43;0.70;;;;;;;0.75;100.00;98657.31;3853960;75;391936;-77
2021/01/08 05:33:42;;;;;;;3.37;1.13;;;;;;;0.81;100.00;98656.70;3851760;76;394031;-77
2021/01/08 05:39:05;;;;;;;2.00;0.97;;;;;;;0.78;100.00;98658.53;3853577;76;389995;-77
2021/01/08 05:44:27;;;;;;;5.37;1.40;;;;;;;0.78;100.00;98653.34;3853951;75;383827;-77
2021/01/08 05:49:52;;;;;;;2.13;0.90;;;;;;;0.74;100.00;98663.05;3853652;76;394235;-77
2021/01/08 05:55:14;;;;;;;0.80;0.57;;;;;;;0.75;100.00;98657.86;3852786;76;383575;-77
2021/01/08 06:00:35;;;;;;;1.40;1.00;;;;;;;0.72;100.00;98655.86;3853572;75;396095;-77
2021/01/08 06:05:58;;;;;;;1.30;0.57;;;;;;;0.73;100.00;98661.50;3854123;76;389935;-77
2021/01/08 06:11:29;;;;;;;1.57;1.47;;;;;;;0.65;100.00;98660.51;3853687;75;391919;-77
2021/01/08 06:16:50;;;;;;;3.47;1.97;;;;;;;0.69;100.00;98660.60;3834785;76;392994;-77
2021/01/08 06:22:11;;;;;;;1.93;1.83;;;;;;;0.65;100.00;98662.44;3853746;76;392953;-77
2021/01/08 06:27:34;;;;;;;2.10;2.00;;;;;;;0.70;100.00;98658.13;3853885;75;387962;-77
2021/01/08 06:33:04;;;;;;;1.47;1.37;;;;;;;0.55;100.00;98655.58;3853478;76;394078;-77
2021/01/08 06:38:29;;;;;;;2.80;1.17;;;;;;;0.54;100.00;98655.35;3857988;76;388729;-77
2021/01/08 06:43:56;;;;;;;6.73;3.60;;;;;;;0.56;100.00;98650.39;3853362;76;391913;-77
2021/01/08 06:49:19;;;;;;;1.67;1.23;;;;;;;0.56;100.00;98659.09;3853077;76;396090;-77
2021/01/08 06:54:43;;;;;;;2.00;1.30;;;;;;;0.58;100.00;98654.90;3853964;76;393988;-77
2021/01/08 07:00:08;;;;;;;1.90;1.33;;;;;;;0.63;100.00;98656.00;3853625;76;394235;-77
2021/01/08 07:05:29;;;;;;;2.33;2.20;;;;;;;0.61;100.00;98672.36;3854036;76;383822;-77
2021/01/08 07:10:56;;;;;;;1.10;0.60;;;;;;;0.62;100.00;98670.66;3854232;75;389034;-77
2021/01/08 07:16:21;;;;;;;2.97;2.77;;;;;;;0.64;100.00;98673.04;3854188;75;383756;-77
2021/01/08 07:21:47;;;;;;;6.93;3.00;;;;;;;0.63;100.00;98674.16;3853657;76;394233;-77
2021/01/08 07:27:19;;;;;;;2.60;0.93;;;;;;;0.65;100.00;98680.03;3854058;76;388997;-77
2021/01/08 07:32:51;;;;;;;1.20;1.10;;;;;;;0.66;100.00;98687.80;3854446;76;383564;-77
2021/01/08 07:38:14;;;;;;;1.77;1.67;;;;;;;0.63;100.00;98685.77;3853946;76;383604;-77
2021/01/08 07:43:36;;;;;;;9.00;2.10;;;;;;;0.67;100.00;98698.05;3853483;76;394040;-77
2021/01/08 07:48:59;;;;;;;2.17;2.00;;;;;;;0.70;100.00;98706.84;3853704;75;389872;-77
2021/01/08 07:54:35;;;;;;;2.60;2.10;;;;;;;0.75;100.00;98718.77;3853125;75;396287;-77
2021/01/08 07:59:56;;;;;;;1.20;0.83;;;;;;;0.68;100.00;98714.51;3836478;76;391913;-76
2021/01/08 08:05:19;;;;;;;3.23;2.37;;;;;;;0.70;100.00;98719.02;3853673;76;396271;-77
2021/01/08 08:10:40;;;;;;;1.93;1.10;;;;;;;0.76;100.00;98725.76;3853911;76;395041;-77
2021/01/08 08:16:01;;;;;;;1.63;1.13;;;;;;;0.72;100.00;98725.66;3853561;76;395037;-77
2021/01/08 08:21:23;;;;;;;2.50;1.37;;;;;;;0.71;100.00;98729.49;3853495;76;396102;-77
2021/01/08 08:26:45;;;;;;;1.43;1.33;;;;;;;0.73;100.00;98731.88;3854114;76;383783;-77
2021/01/08 08:32:07;;;;;;;8.93;1.93;;;;;;;0.73;100.00;98742.13;3853500;76;387792;-77
2021/01/08 08:37:28;;;;;;;1.00;0.90;;;;;;;0.77;100.00;98746.28;3854462;76;383801;-77
2021/01/08 08:42:54;;;;;;;1.47;1.30;;;;;;;0.76;100.00;98758.24;3854666;75;383560;-77
2021/01/08 08:48:17;;;;;;;6.83;1.93;;;;;;;0.69;100.00;98753.98;3853486;76;388772;-76
2021/01/08 08:53:38;;;;;;;1.33;0.80;;;;;;;0.66;100.00;98762.23;3854134;76;383563;-76
2021/01/08 08:58:59;;;;;;;0.70;0.40;;;;;;;0.67;100.00;98765.70;3854521;76;383774;-76
2021/01/08 09:04:21;;;;;;;1.10;1.00;;;;;;;0.64;100.00;98763.70;3854057;76;389814;-76
2021/01/08 09:09:44;;;;;;;1.00;0.60;;;;;;;0.64;100.00;98770.47;3854533;75;387789;-77
2021/01/08 09:15:09;;;;;;;1.50;1.00;;;;;;;0.66;100.00;98769.54;3835718;76;395158;-77
2021/01/08 09:20:32;;;;;;;1.17;0.67;;;;;;;0.69;100.00;98770.22;3854434;75;383563;-77
2021/01/08 09:25:54;;;;;;;6.30;1.70;;;;;;;0.68;100.00;98779.47;3853624;76;396134;-77
2021/01/08 09:31:15;;;;;;;0.97;0.87;;;;;;;0.71;100.00;98778.22;3854361;76;391859;-78
2021/01/08 09:36:39;;;;;;;0.70;0.50;;;;;;;0.78;100.00;98788.70;3854893;75;383570;-77
2021/01/08 09:42:01;;;;;;;1.37;1.27;;;;;;;0.86;100.00;98785.61;3854550;76;383548;-79
2021/01/08 09:47:25;;;;;;;8.17;2.43;;;;;;;0.86;100.00;98791.03;3856118;76;383783;-79
2021/01/08 09:52:49;;;;;;;2.37;1.43;;;;;;;0.86;100.00;98789.13;3853512;75;396351;-79
2021/01/08 09:58:15;;;;;;;3.53;1.27;;;;;;;0.83;100.00;98796.57;3853882;76;387702;-79
2021/01/08 10:03:36;;;;;;;2.40;1.23;;;;;;;0.90;100.00;98791.94;3852616;76;396169;-79
2021/01/08 10:09:02;;;;;;;11.70;1.80;;;;;;;1.01;100.00;98787.63;3854087;75;383759;-79
2021/01/08 10:14:23;;;;;;;0.93;0.83;;;;;;;1.13;100.00;98791.63;3854502;75;383898;-78
2021/01/08 10:19:47;;;;;;;1.33;1.23;;;;;;;1.10;100.00;98790.40;3853681;75;393162;-82
2021/01/08 10:25:28;;;;;;;4.43;1.20;;;;;;;1.15;100.00;98788.78;3853944;75;394023;-82
2021/01/08 10:30:52;;;;;;;1.07;0.90;;;;;;;1.29;100.00;98797.33;3854056;76;391940;-81
2021/01/08 10:36:14;;;;;;;0.83;0.63;;;;;;;1.50;100.00;98793.02;3854507;75;383567;-81
2021/01/08 10:41:35;;;;;;;1.43;1.33;;;;;;;1.45;100.00;98794.09;3847531;76;383536;-81
2021/01/08 10:46:57;;;;;;;1.17;1.07;;;;;;;1.44;100.00;98787.09;3854343;76;383783;-80
2021/01/08 10:52:18;;;;;;;2.13;1.60;;;;;;;1.49;100.00;98784.12;3853563;75;395257;-80
2021/01/08 10:57:40;;;;;;;1.00;0.70;;;;;;;1.35;100.00;98795.94;3854301;75;383535;-79
2021/01/08 11:03:01;;;;;;;0.80;0.40;;;;;;;1.39;100.00;98800.88;3854824;75;383888;-79
2021/01/08 11:08:22;;;;;;;1.40;1.30;;;;;;;1.40;100.00;98797.03;3853811;76;394993;-79
2021/01/08 11:13:44;;;;;;;1.43;0.97;;;;;;;1.49;100.00;98800.38;3854122;75;389760;-80
2021/01/08 11:19:05;;;;;;;2.40;0.97;;;;;;;1.46;100.00;98800.28;3852862;76;395027;-80
2021/01/08 11:24:26;;;;;;;1.20;0.90;;;;;;;1.62;100.00;98797.81;3853760;76;394032;-80
2021/01/08 11:29:48;;;;;;;1.27;1.17;;;;;;;1.59;100.00;98786.33;3854005;76;396024;-80
2021/01/08 11:35:10;;;;;;;1.03;0.90;;;;;;;1.63;100.00;98796.13;3854382;75;383548;-80
2021/01/08 11:40:31;;;;;;;0.90;0.80;;;;;;;1.71;100.00;98795.17;3854626;75;385753;-80
2021/01/08 11:45:52;;;;;;;0.90;0.70;;;;;;;1.71;100.00;98784.88;3854707;75;383842;-80
2021/01/08 11:51:15;;;;;;;1.60;0.70;;;;;;;1.78;100.00;98785.05;3854357;75;383579;-80
2021/01/08 11:56:37;;;;;;;1.27;1.17;;;;;;;1.81;100.00;98785.17;3853898;75;389857;-80
2021/01/08 12:02:04;;;;;;;2.10;2.00;;;;;;;2.00;100.00;98789.90;3853771;76;390073;-80
2021/01/08 12:07:25;;;;;;;0.90;0.60;;;;;;;2.02;100.00;98788.41;3854285;76;387722;-80
2021/01/08 12:12:49;;;;;;;4.40;0.80;;;;;;;2.21;100.00;98799.90;3853107;76;389861;-81
2021/01/08 12:18:11;;;;;;;2.90;1.03;;;;;;;2.31;100.00;98802.86;3854080;75;389783;-80
2021/01/08 12:23:32;;;;;;;1.67;0.77;;;;;;;2.33;100.00;98801.95;3854335;76;386715;-82
2021/01/08 12:28:53;;;;;;;0.80;0.50;;;;;;;2.24;100.00;98805.41;3854898;75;383895;-81
2021/01/08 12:34:15;;;;;;;5.13;3.17;;;;;;;2.35;100.00;98815.95;3852927;76;396079;-81
2021/01/08 12:39:37;;;;;;;1.10;1.00;;;;;;;2.19;100.00;98812.47;3854282;75;383617;-81
2021/01/08 12:44:58;;;;;;;1.27;1.17;;;;;;;2.20;100.00;98818.67;3853766;75;395286;-81
2021/01/08 12:50:20;;;;;;;3.63;1.63;;;;;;;2.13;100.00;98813.88;3853423;76;396118;-80
2021/01/08 12:55:42;;;;;;;1.43;0.73;;;;;;;2.05;100.00;98815.39;3854155;76;391948;-80
2021/01/08 13:01:05;;;;;;;0.90;0.77;;;;;;;2.04;100.00;98815.17;3854790;76;383600;-81
2021/01/08 13:06:27;;;;;;;1.20;0.67;;;;;;;1.98;100.00;98826.08;3854112;75;390042;-81
2021/01/08 13:11:48;;;;;;;0.90;0.77;;;;;;;1.87;100.00;98818.22;3854252;76;391897;-82
2021/01/08 13:17:10;;;;;;;1.00;0.87;;;;;;;1.86;100.00;98824.23;3854290;75;383563;-81
2021/01/08 13:22:34;;;;;;;0.97;0.83;;;;;;;1.95;100.00;98829.47;3854462;76;383583;-80
2021/01/08 13:27:55;;;;;;;0.80;0.50;;;;;;;1.82;100.00;98832.05;3853521;76;383921;-80
2021/01/08 13:33:17;;;;;;;1.37;1.03;;;;;;;1.86;100.00;98835.08;3853967;75;387680;-80
2021/01/08 13:38:38;;;;;;;1.87;1.33;;;;;;;1.85;100.00;98832.14;3853580;75;396286;-80
2021/01/08 13:44:01;;;;;;;1.00;0.90;;;;;;;1.81;100.00;98838.60;3853843;76;396079;-80
2021/01/08 13:49:23;;;;;;;0.80;0.40;;;;;;;1.83;100.00;98836.34;3854606;76;383865;-80
2021/01/08 13:54:44;;;;;;;1.67;1.00;;;;;;;1.92;100.00;98841.03;3854014;76;387774;-79
2021/01/08 14:00:07;;;;;;;1.83;1.03;;;;;;;1.88;100.00;98852.34;3853538;75;393940;-80
2021/01/08 14:05:28;;;;;;;0.80;0.60;;;;;;;1.89;100.00;98859.34;3854776;76;383806;-79
2021/01/08 14:10:50;;;;;;;1.13;0.90;;;;;;;1.85;100.00;98863.33;3854455;75;387817;-79
2021/01/08 14:16:14;;;;;;;1.53;1.43;;;;;;;1.88;100.00;98876.75;3854022;76;392136;-79
2021/01/08 14:21:39;;;;;;;3.13;1.60;;;;;;;1.85;100.00;98881.53;3853676;76;396067;-79
2021/01/08 14:27:01;;;;;;;3.23;2.93;;;;;;;1.91;100.00;98885.56;3853528;76;396043;-80
2021/01/08 14:32:22;;;;;;;1.47;1.20;;;;;;;1.83;100.00;98883.80;3854300;75;389775;-81
2021/01/08 14:37:44;;;;;;;0.93;0.83;;;;;;;1.87;100.00;98892.80;3854058;75;392136;-80
2021/01/08 14:43:06;;;;;;;1.63;0.80;;;;;;;1.82;100.00;98899.84;3853988;76;389759;-80
2021/01/08 14:48:29;;;;;;;1.40;0.80;;;;;;;1.78;100.00;98907.88;3853713;76;393940;-80
2021/01/08 14:53:50;;;;;;;1.10;1.00;;;;;;;1.76;100.00;98912.86;3852926;76;395032;-80
2021/01/08 14:59:12;;;;;;;0.80;0.50;;;;;;;1.75;100.00;98915.92;3738742;77;383754;-80
2021/01/08 15:04:33;;;;;;;2.50;1.87;;;;;;;1.72;100.00;98918.77;3737662;78;387823;-80
2021/01/08 15:09:54;;;;;;;1.00;0.90;;;;;;;1.80;100.00;98919.73;3737752;78;391918;-80
2021/01/08 15:15:16;;;;;;;1.37;1.27;;;;;;;1.77;100.00;98916.38;3737272;77;393999;-80
2021/01/08 15:21:06;;;;;;;2.50;1.63;;;;;;;1.87;100.00;98923.98;3736983;77;396283;-80
2021/01/08 15:26:27;;;;;;;1.77;1.33;;;;;;;1.84;100.00;98928.77;3737061;78;396126;-81
2021/01/08 15:31:50;;;;;;;1.17;1.07;;;;;;;1.78;100.00;98934.19;3737841;78;391850;-80
2021/01/08 15:37:11;;;;;;;3.23;1.53;;;;;;;1.73;100.00;98935.80;3737222;78;394043;-80
2021/01/08 15:42:32;;;;;;;2.40;1.33;;;;;;;1.67;100.00;98933.13;3737158;78;396116;-80
2021/01/08 15:47:53;;;;;;;1.90;1.07;;;;;;;1.60;100.00;98931.58;3737159;77;394195;-80
2021/01/08 15:53:15;;;;;;;2.10;1.97;;;;;;;1.68;100.00;98941.48;3737717;78;383797;-80
2021/01/08 15:58:36;;;;;;;3.07;1.33;;;;;;;1.59;100.00;98951.68;3737296;78;395224;-79
2021/01/08 16:03:57;;;;;;;1.17;1.07;;;;;;;1.62;100.00;98960.46;3737557;77;391858;-81
2021/01/08 16:09:18;;;;;;;0.80;0.40;;;;;;;1.55;100.00;98968.97;3738533;78;383530;-81
2021/01/08 16:14:39;;;;;;;0.80;0.50;;;;;;;1.50;100.00;98974.06;3738491;78;383535;-81
2021/01/08 16:20:01;;;;;;;5.63;1.60;;;;;;;1.35;100.00;98974.78;3737299;78;391849;-82
2021/01/08 16:25:22;;;;;;;1.17;0.90;;;;;;;1.42;100.00;98984.47;3738019;78;391922;-78
2021/01/08 16:30:44;;;;;;;1.97;1.00;;;;;;;1.38;100.00;98998.47;3737581;77;390068;-78
2021/01/08 16:36:05;;;;;;;4.83;1.17;;;;;;;1.44;100.00;98999.02;3737927;78;390056;-79
2021/01/08 16:41:26;;;;;;;0.83;0.70;;;;;;;1.35;100.00;99005.94;3738459;77;383578;-79
2021/01/08 16:46:48;;;;;;;0.93;0.83;;;;;;;1.44;100.00;99004.45;3738315;78;383813;-79
2021/01/08 16:52:10;;;;;;;0.90;0.70;;;;;;;1.35;100.00;99013.27;3738483;78;383575;-79
2021/01/08 16:57:31;;;;;;;4.10;1.90;;;;;;;1.22;100.00;99015.19;3737986;77;385692;-80
2021/01/08 17:02:53;;;;;;;0.90;0.60;;;;;;;1.23;100.00;99018.13;3738463;77;383786;-79
2021/01/08 17:08:14;;;;;;;2.60;0.60;;;;;;;1.38;100.00;99022.86;3737985;78;389774;-79
2021/01/08 17:13:35;;;;;;;1.77;1.17;;;;;;;1.37;100.00;99021.30;3737543;78;396077;-79
2021/01/08 17:18:59;;;;;;;1.57;1.47;;;;;;;1.22;100.00;99029.31;3737496;78;396062;-79
2021/01/08 17:24:22;;;;;;;3.60;2.17;;;;;;;1.35;100.00;99036.30;3709904;78;396062;-78
2021/01/08 17:29:43;;;;;;;1.63;1.00;;;;;;;1.26;100.00;99044.55;3737566;77;394013;-79
2021/01/08 17:35:04;;;;;;;1.70;1.60;;;;;;;1.24;100.00;99045.45;3737027;77;396403;-78
2021/01/08 17:40:25;;;;;;;1.30;1.03;;;;;;;1.26;100.00;99049.17;3738197;78;383535;-79
2021/01/08 17:45:49;;;;;;;1.27;1.17;;;;;;;1.29;100.00;99053.92;3738000;77;383534;-78
2021/01/08 17:51:12;;;;;;;1.87;1.77;;;;;;;1.33;100.00;99053.48;3737326;77;394002;-78
2021/01/08 17:56:34;;;;;;;2.93;1.40;;;;;;;1.18;100.00;99060.91;3737836;78;393939;-79
2021/01/08 18:01:55;;;;;;;1.87;1.77;;;;;;;1.19;100.00;99067.91;3738064;78;383569;-79
2021/01/08 18:07:16;;;;;;;1.00;0.90;;;;;;;1.09;100.00;99080.56;3738228;77;383622;-79
2021/01/08 18:12:40;;;;;;;0.80;0.60;;;;;;;1.14;100.00;99077.05;3738399;78;383766;-79
2021/01/08 18:18:02;;;;;;;6.93;1.87;;;;;;;1.25;100.00;99078.20;3737969;77;385618;-79
2021/01/08 18:23:23;;;;;;;1.53;1.43;;;;;;;1.28;100.00;99082.14;3737801;77;395073;-79
2021/01/08 18:28:44;;;;;;;4.60;1.33;;;;;;;1.25;100.00;99084.19;3737628;77;395044;-78
2021/01/08 18:34:06;;;;;;;1.27;1.17;;;;;;;1.19;100.00;99095.00;3737443;77;396085;-79
2021/01/08 18:39:27;;;;;;;3.80;2.97;;;;;;;1.27;100.00;99096.27;3737063;77;396108;-79
2021/01/08 18:44:49;;;;;;;1.37;1.27;;;;;;;1.30;100.00;99109.70;3789949;76;383568;-78
2021/01/08 18:50:11;;;;;;;1.10;1.00;;;;;;;1.25;100.00;99111.28;3821916;76;392108;-79
2021/01/08 18:55:32;;;;;;;1.67;1.10;;;;;;;1.18;100.00;99113.19;3807929;76;392968;-77
2021/01/08 19:00:54;;;;;;;1.77;1.60;;;;;;;1.17;100.00;99122.44;3809522;74;396277;-78
2021/01/08 19:06:15;;;;;;;3.53;1.70;;;;;;;1.15;100.00;99123.33;3816796;76;396033;-78
2021/01/08 19:11:38;;;;;;;1.23;1.13;;;;;;;1.05;100.00;99122.98;3795760;77;383821;-78
2021/01/08 19:17:00;;;;;;;5.07;1.20;;;;;;;1.24;100.00;99120.53;3800687;76;383560;-78
2021/01/08 19:22:21;;;;;;;3.13;1.03;;;;;;;1.27;100.00;99124.72;3800219;77;391907;-78
2021/01/08 19:27:42;;;;;;;1.90;1.73;;;;;;;1.21;100.00;99112.49;3799784;76;391949;-78
2021/01/08 19:33:04;;;;;;;3.90;0.80;;;;;;;1.18;100.00;99118.61;3800376;76;394029;-78
2021/01/08 19:38:25;;;;;;;3.00;2.50;;;;;;;1.13;100.00;99119.38;3800193;76;392943;-77
2021/01/08 19:43:47;;;;;;;1.50;1.40;;;;;;;1.06;100.00;99128.63;3800473;77;393229;-78
2021/01/08 19:49:08;;;;;;;1.40;1.30;;;;;;;1.06;100.00;99130.77;3800403;76;391891;-78
2021/01/08 19:54:30;;;;;;;1.07;0.97;;;;;;;1.14;100.00;99130.45;3800835;76;383761;-78
2021/01/08 19:59:52;;;;;;;3.57;1.27;;;;;;;1.08;100.00;99127.16;3800375;76;396040;-78
2021/01/08 20:05:13;;;;;;;1.23;1.13;;;;;;;1.01;100.00;99128.86;3800477;77;391945;-78
2021/01/08 20:10:35;;;;;;;1.20;1.10;;;;;;;1.07;100.00;99133.70;3800871;77;387754;-78
2021/01/08 20:15:56;;;;;;;1.87;0.97;;;;;;;1.06;100.00;99143.53;3800054;77;396124;-78
2021/01/08 20:21:17;;;;;;;1.43;1.33;;;;;;;1.09;100.00;99148.28;3800477;76;396037;-78
2021/01/08 20:26:38;;;;;;;3.70;1.93;;;;;;;1.10;100.00;99156.06;3799736;77;396078;-78
2021/01/08 20:32:06;;;;;;;3.07;1.97;;;;;;;1.10;100.00;99161.48;3800001;76;396061;-78
2021/01/08 20:37:26;;;;;;;2.70;2.60;;;;;;;1.02;100.00;99160.20;3800739;74;396338;-78
2021/01/08 20:42:47;;;;;;;1.90;1.80;;;;;;;1.10;100.00;99172.86;3799867;77;396029;-78
2021/01/08 20:48:09;;;;;;;1.63;1.53;;;;;;;1.11;100.00;99175.27;3800885;76;383785;-78
2021/01/08 20:53:30;;;;;;;3.33;1.73;;;;;;;1.08;100.00;99176.50;3799784;76;396108;-78
2021/01/08 20:58:52;;;;;;;1.57;0.90;;;;;;;1.12;100.00;99175.49;3800596;76;395027;-78
2021/01/08 21:04:13;;;;;;;7.43;1.87;;;;;;;1.13;100.00;99179.76;3800527;77;383757;-78
2021/01/08 21:09:34;;;;;;;1.00;0.70;;;;;;;1.15;100.00;99188.35;3801029;77;389857;-78
2021/01/08 21:14:56;;;;;;;2.40;2.00;;;;;;;1.11;100.00;99191.52;3800162;76;396107;-78
2021/01/08 21:20:18;;;;;;;2.80;2.60;;;;;;;1.03;100.00;99197.81;3799911;76;395050;-78
2021/01/08 21:25:39;;;;;;;1.40;1.30;;;;;;;1.07;100.00;99200.64;3800092;77;396080;-78
2021/01/08 21:31:02;;;;;;;6.00;0.90;;;;;;;1.21;100.00;99204.61;3800394;76;391890;-78
2021/01/08 21:36:38;;;;;;;4.47;3.00;;;;;;;1.20;100.00;99204.41;3800382;76;390004;-78
2021/01/08 21:41:59;;;;;;;4.03;2.30;;;;;;;1.18;100.00;99208.01;3800041;76;396097;-78
2021/01/08 21:47:20;;;;;;;1.70;1.60;;;;;;;1.15;100.00;99208.66;3799738;77;396124;-78
2021/01/08 21:52:41;;;;;;;5.13;2.23;;;;;;;1.21;100.00;99213.31;3799783;76;396350;-78
2021/01/08 21:58:03;;;;;;;1.33;1.20;;;;;;;1.18;100.00;99222.10;3800379;76;393980;-78
2021/01/08 22:03:24;;;;;;;1.00;0.90;;;;;;;1.22;100.00;99228.45;3800336;77;392157;-78
2021/01/08 22:08:45;;;;;;;3.60;1.43;;;;;;;1.17;100.00;99229.45;3800156;77;396052;-78
2021/01/08 22:14:07;;;;;;;0.93;0.83;;;;;;;1.14;100.00;99227.40;3773538;77;383584;-78
2021/01/08 22:19:28;;;;;;;2.97;2.07;;;;;;;1.11;100.00;99222.67;3799899;77;396120;-78
2021/01/08 22:24:50;;;;;;;2.60;2.40;;;;;;;1.07;100.00;99229.86;3799713;76;396037;-78
2021/01/08 22:30:11;;;;;;;2.13;1.50;;;;;;;1.05;100.00;99228.04;3799598;77;396060;-78
2021/01/08 22:35:34;;;;;;;5.43;1.77;;;;;;;1.05;100.00;99229.39;3799980;76;396101;-77
2021/01/08 22:40:55;;;;;;;0.90;0.80;;;;;;;0.95;100.00;99237.16;3801262;76;387905;-78
2021/01/08 22:46:21;;;;;;;2.27;1.93;;;;;;;1.01;100.00;99234.48;3800117;77;394244;-78
2021/01/08 22:51:42;;;;;;;5.07;1.50;;;;;;;0.97;100.00;99239.75;3799650;77;396100;-78
2021/01/08 22:57:06;;;;;;;1.90;1.13;;;;;;;0.92;100.00;99236.48;3800559;76;391906;-78
2021/01/08 23:02:27;;;;;;;1.53;1.37;;;;;;;0.95;100.00;99237.95;3799826;77;396677;-77
2021/01/08 23:07:48;;;;;;;1.30;1.20;;;;;;;0.86;100.00;99245.36;3799906;77;395038;-77
2021/01/08 23:13:09;;;;;;;6.90;1.40;;;;;;;0.91;100.00;99245.15;3800365;76;391969;-77
2021/01/08 23:18:30;;;;;;;5.40;1.87;;;;;;;0.85;100.00;99242.42;3800126;76;392416;-77
2021/01/08 23:23:51;;;;;;;1.10;0.97;;;;;;;0.77;100.00;99248.47;3799559;76;383537;-77
2021/01/08 23:29:12;;;;;;;1.37;1.27;;;;;;;0.69;100.00;99254.75;3800399;77;396070;-77
2021/01/08 23:34:33;;;;;;;1.47;1.30;;;;;;;0.67;100.00;99259.69;3800341;77;396115;-77
2021/01/08 23:39:55;;;;;;;2.73;1.50;;;;;;;0.69;100.00;99258.81;3800627;77;390047;-77
2021/01/08 23:45:16;;;;;;;6.23;3.80;;;;;;;0.79;100.00;99258.65;3800315;77;396100;-77
2021/01/08 23:50:37;;;;;;;2.00;1.80;;;;;;;0.84;100.00;99264.43;3799972;76;396072;-77
2021/01/08 23:55:59;;;;;;;8.43;1.43;;;;;;;0.99;100.00;99263.23;3800088;77;400493;-77
